createdAt,value
2017-12-31T00:00:20.204Z,10.90
2017-12-31T00:02:46.595Z,10.90
2017-12-31T00:05:12.981Z,10.90
2017-12-31T00:07:39.412Z,11.00
2017-12-31T00:10:05.828Z,11.00
2017-12-31T00:12:33.027Z,10.90
2017-12-31T00:14:59.441Z,10.90
2017-12-31T00:17:25.872Z,10.90
2017-12-31T00:19:52.303Z,10.90
2017-12-31T00:22:18.671Z,11.00
2017-12-31T00:24:45.204Z,11.00
2017-12-31T00:27:11.607Z,11.00
2017-12-31T00:29:38.073Z,11.00
2017-12-31T00:32:05.316Z,11.00
2017-12-31T00:34:31.725Z,11.00
2017-12-31T00:36:58.139Z,11.10
2017-12-31T00:39:24.517Z,11.10
2017-12-31T00:41:50.999Z,11.10
2017-12-31T00:44:18.184Z,11.00
2017-12-31T00:46:44.584Z,11.00
2017-12-31T00:49:11.009Z,11.10
2017-12-31T00:51:37.404Z,11.10
2017-12-31T00:54:03.816Z,11.10
2017-12-31T00:56:30.260Z,11.10
2017-12-31T00:58:56.783Z,11.10
2017-12-31T01:01:23.173Z,11.10
2017-12-31T01:03:49.605Z,11.10
2017-12-31T01:06:16.027Z,11.10
2017-12-31T01:08:43.248Z,11.10
2017-12-31T01:11:09.660Z,11.10
2017-12-31T01:13:36.167Z,11.10
2017-12-31T01:16:02.699Z,11.10
2017-12-31T01:18:29.122Z,11.10
2017-12-31T01:20:55.489Z,11.20
2017-12-31T01:23:21.929Z,11.20
2017-12-31T01:25:48.341Z,11.20
2017-12-31T01:28:14.781Z,11.20
2017-12-31T01:30:41.264Z,11.10
2017-12-31T01:33:08.941Z,11.10
2017-12-31T01:35:35.377Z,11.10
2017-12-31T01:38:01.877Z,11.20
2017-12-31T01:40:28.308Z,11.20
2017-12-31T01:42:54.729Z,11.20
2017-12-31T01:45:21.132Z,11.20
2017-12-31T01:47:47.647Z,11.20
2017-12-31T01:50:14.045Z,11.20
2017-12-31T01:52:40.874Z,11.20
2017-12-31T01:55:07.268Z,11.20
2017-12-31T01:57:33.789Z,11.20
2017-12-31T02:00:00.386Z,11.20
2017-12-31T02:02:26.874Z,11.20
2017-12-31T02:04:53.357Z,11.20
2017-12-31T02:07:20.562Z,11.30
2017-12-31T02:09:47.092Z,11.30
2017-12-31T02:12:13.524Z,11.30
2017-12-31T02:14:40.110Z,11.20
2017-12-31T02:17:06.528Z,11.20
2017-12-31T02:19:33.144Z,11.20
2017-12-31T02:21:59.537Z,11.30
2017-12-31T02:24:26.052Z,11.30
2017-12-31T02:26:53.376Z,11.30
2017-12-31T02:29:19.944Z,11.30
2017-12-31T02:31:47.084Z,11.30
2017-12-31T02:34:14.230Z,11.30
2017-12-31T02:36:40.668Z,11.30
2017-12-31T02:39:08.063Z,11.20
2017-12-31T02:41:34.468Z,11.20
2017-12-31T02:44:00.864Z,11.20
2017-12-31T02:46:27.280Z,11.20
2017-12-31T02:48:53.673Z,11.30
2017-12-31T02:51:20.172Z,11.20
2017-12-31T02:53:47.357Z,11.20
2017-12-31T02:56:20.740Z,11.20
2017-12-31T02:58:47.946Z,11.20
2017-12-31T03:01:14.324Z,11.10
2017-12-31T03:03:41.496Z,11.20
2017-12-31T03:06:07.941Z,11.20
2017-12-31T03:08:34.308Z,11.20
2017-12-31T03:11:00.808Z,11.10
2017-12-31T03:13:27.212Z,11.10
2017-12-31T03:15:53.601Z,11.10
2017-12-31T03:18:20.069Z,11.10
2017-12-31T03:20:46.473Z,11.20
2017-12-31T03:23:12.863Z,11.20
2017-12-31T03:25:39.232Z,11.10
2017-12-31T03:28:05.648Z,11.10
2017-12-31T03:30:32.048Z,11.10
2017-12-31T03:32:58.536Z,11.00
2017-12-31T03:35:24.924Z,11.00
2017-12-31T03:37:51.356Z,11.00
2017-12-31T03:40:17.781Z,11.00
2017-12-31T03:42:44.205Z,11.10
2017-12-31T03:45:10.615Z,11.00
2017-12-31T03:47:37.782Z,10.90
2017-12-31T03:50:04.163Z,10.90
2017-12-31T03:52:30.641Z,10.90
2017-12-31T03:54:57.056Z,10.80
2017-12-31T03:57:24.215Z,10.80
2017-12-31T03:59:50.644Z,10.70
2017-12-31T04:02:17.867Z,10.50
2017-12-31T04:04:44.248Z,10.50
2017-12-31T04:07:10.663Z,10.40
2017-12-31T04:09:37.025Z,10.30
2017-12-31T04:12:04.741Z,10.20
2017-12-31T04:14:31.884Z,10.00
2017-12-31T04:16:59.100Z,10.00
2017-12-31T04:19:25.496Z,10.00
2017-12-31T04:21:51.900Z,10.10
2017-12-31T04:24:19.130Z,10.10
2017-12-31T04:26:45.548Z,10.10
2017-12-31T04:29:12.004Z,10.20
2017-12-31T04:31:38.394Z,10.20
2017-12-31T04:34:04.912Z,10.20
2017-12-31T04:36:31.324Z,10.10
2017-12-31T04:38:58.486Z,10.00
2017-12-31T04:41:24.958Z,10.00
2017-12-31T04:43:51.350Z,10.10
2017-12-31T04:46:17.767Z,10.10
2017-12-31T04:48:44.917Z,10.10
2017-12-31T04:51:12.066Z,10.10
2017-12-31T04:53:39.172Z,10.10
2017-12-31T04:56:05.633Z,10.10
2017-12-31T04:58:32.813Z,10.20
2017-12-31T05:00:59.184Z,10.20
2017-12-31T05:03:25.587Z,10.30
2017-12-31T05:05:51.988Z,10.30
2017-12-31T05:08:19.097Z,10.30
2017-12-31T05:10:45.508Z,10.30
2017-12-31T05:13:11.897Z,10.40
2017-12-31T05:15:39.047Z,10.30
2017-12-31T05:18:06.197Z,10.30
2017-12-31T05:20:33.338Z,10.30
2017-12-31T05:23:00.476Z,10.20
2017-12-31T05:25:26.905Z,10.20
2017-12-31T05:27:53.388Z,10.30
2017-12-31T05:30:19.784Z,10.40
2017-12-31T05:32:46.962Z,10.40
2017-12-31T05:35:13.332Z,10.40
2017-12-31T05:37:39.889Z,10.40
2017-12-31T05:40:06.337Z,10.40
2017-12-31T05:42:33.493Z,10.40
2017-12-31T05:45:00.733Z,10.50
2017-12-31T05:47:27.964Z,10.50
2017-12-31T05:49:54.364Z,10.40
2017-12-31T05:52:20.777Z,10.40
2017-12-31T05:54:47.210Z,10.40
2017-12-31T05:57:13.588Z,10.40
2017-12-31T05:59:40.007Z,10.40
2017-12-31T06:02:06.439Z,10.40
2017-12-31T06:04:32.824Z,10.40
2017-12-31T06:06:59.205Z,10.40
2017-12-31T06:09:25.629Z,10.30
2017-12-31T06:11:52.030Z,10.30
2017-12-31T06:14:18.433Z,10.30
2017-12-31T06:16:45.581Z,10.30
2017-12-31T06:19:12.920Z,10.30
2017-12-31T06:21:39.336Z,10.30
2017-12-31T06:24:05.725Z,10.30
2017-12-31T06:26:32.161Z,10.30
2017-12-31T06:28:58.612Z,10.40
2017-12-31T06:31:24.995Z,10.40
2017-12-31T06:33:52.132Z,10.50
2017-12-31T06:36:18.505Z,10.40
2017-12-31T06:38:44.965Z,10.50
2017-12-31T06:41:12.109Z,10.50
2017-12-31T06:43:38.510Z,10.50
2017-12-31T06:46:04.974Z,10.50
2017-12-31T06:48:31.391Z,10.50
2017-12-31T06:50:57.934Z,10.50
2017-12-31T06:53:24.318Z,10.60
2017-12-31T06:55:51.501Z,10.60
2017-12-31T06:58:17.900Z,10.60
2017-12-31T07:00:45.041Z,10.60
2017-12-31T07:03:11.508Z,10.60
2017-12-31T07:05:37.929Z,10.60
2017-12-31T07:08:04.301Z,10.60
2017-12-31T07:10:30.698Z,10.50
2017-12-31T07:12:57.149Z,10.60
2017-12-31T07:15:23.536Z,10.60
2017-12-31T07:17:50.684Z,10.60
2017-12-31T07:20:17.080Z,10.60
2017-12-31T07:22:43.468Z,10.70
2017-12-31T07:25:09.896Z,10.70
2017-12-31T07:27:37.018Z,10.70
2017-12-31T07:30:03.536Z,10.60
2017-12-31T07:32:29.912Z,10.60
2017-12-31T07:34:57.031Z,10.70
2017-12-31T07:37:23.424Z,10.70
2017-12-31T07:39:49.812Z,10.70
2017-12-31T07:42:17.025Z,10.70
2017-12-31T07:44:43.407Z,10.70
2017-12-31T07:47:09.840Z,10.80
2017-12-31T07:49:36.316Z,10.80
2017-12-31T07:52:02.699Z,10.80
2017-12-31T07:54:29.874Z,10.90
2017-12-31T07:56:56.252Z,10.90
2017-12-31T07:59:22.722Z,10.90
2017-12-31T08:01:49.169Z,10.90
2017-12-31T08:04:15.782Z,10.90
2017-12-31T08:06:42.989Z,11.10
2017-12-31T08:09:09.361Z,11.00
2017-12-31T08:11:36.506Z,11.20
2017-12-31T08:14:03.728Z,11.30
2017-12-31T08:16:30.112Z,11.20
2017-12-31T08:18:56.506Z,11.30
2017-12-31T08:21:23.044Z,11.30
2017-12-31T08:23:49.520Z,11.30
2017-12-31T08:26:15.916Z,11.30
2017-12-31T08:28:43.099Z,11.40
2017-12-31T08:31:09.490Z,11.40
2017-12-31T08:33:36.700Z,11.50
2017-12-31T08:36:03.160Z,11.50
2017-12-31T08:38:29.557Z,11.50
2017-12-31T08:40:55.985Z,11.50
2017-12-31T08:43:22.371Z,11.50
2017-12-31T08:45:50.499Z,11.50
2017-12-31T08:48:16.924Z,11.50
2017-12-31T08:50:43.348Z,11.50
2017-12-31T08:53:09.736Z,11.50
2017-12-31T08:55:36.923Z,11.50
2017-12-31T08:58:03.538Z,11.50
2017-12-31T09:00:30.766Z,11.50
2017-12-31T09:02:57.164Z,11.50
2017-12-31T09:05:23.608Z,11.60
2017-12-31T09:07:50.015Z,11.60
2017-12-31T09:10:16.416Z,11.70
2017-12-31T09:12:43.553Z,11.80
2017-12-31T09:15:10.747Z,11.80
2017-12-31T09:17:37.136Z,11.80
2017-12-31T09:20:04.320Z,12.00
2017-12-31T09:22:30.724Z,11.90
2017-12-31T09:24:57.920Z,11.90
2017-12-31T09:27:24.324Z,11.80
2017-12-31T09:29:50.720Z,11.80
2017-12-31T09:32:17.498Z,11.80
2017-12-31T09:34:43.953Z,11.80
2017-12-31T09:37:10.343Z,11.80
2017-12-31T09:39:37.488Z,11.80
2017-12-31T09:42:03.912Z,11.80
2017-12-31T09:44:31.049Z,11.90
2017-12-31T09:46:57.460Z,11.90
2017-12-31T09:49:23.864Z,12.00
2017-12-31T09:51:50.269Z,12.10
2017-12-31T09:54:17.458Z,12.10
2017-12-31T09:56:43.857Z,12.10
2017-12-31T09:59:10.366Z,12.20
2017-12-31T10:01:36.878Z,12.20
2017-12-31T10:04:03.304Z,12.40
2017-12-31T10:06:29.735Z,12.50
2017-12-31T10:08:56.881Z,12.60
2017-12-31T10:11:23.409Z,12.50
2017-12-31T10:13:49.820Z,12.60
2017-12-31T10:16:16.264Z,12.60
2017-12-31T10:18:42.743Z,12.60
2017-12-31T10:21:09.909Z,12.50
2017-12-31T10:23:37.058Z,12.50
2017-12-31T10:26:03.541Z,12.50
2017-12-31T10:28:30.006Z,12.50
2017-12-31T10:30:56.469Z,12.50
2017-12-31T10:33:23.059Z,12.40
2017-12-31T10:35:49.506Z,12.40
2017-12-31T10:38:15.975Z,12.40
2017-12-31T10:40:42.496Z,12.40
2017-12-31T10:43:09.716Z,12.40
2017-12-31T10:45:36.109Z,12.40
2017-12-31T10:48:02.593Z,12.40
2017-12-31T10:50:28.984Z,12.40
2017-12-31T10:52:55.437Z,12.40
2017-12-31T10:55:21.876Z,12.50
2017-12-31T10:57:48.401Z,12.50
2017-12-31T11:00:14.844Z,12.60
2017-12-31T11:02:41.320Z,12.50
2017-12-31T11:05:07.753Z,12.50
2017-12-31T11:07:34.165Z,12.50
2017-12-31T11:10:01.361Z,12.60
2017-12-31T11:12:27.781Z,12.60
2017-12-31T11:14:54.338Z,12.60
2017-12-31T11:17:20.761Z,12.70
2017-12-31T11:19:47.176Z,12.80
2017-12-31T11:22:13.646Z,12.90
2017-12-31T11:24:40.042Z,13.00
2017-12-31T11:27:06.426Z,13.00
2017-12-31T11:29:32.840Z,13.00
2017-12-31T11:31:59.293Z,13.10
2017-12-31T11:34:25.711Z,13.10
2017-12-31T11:36:52.182Z,13.10
2017-12-31T11:39:19.397Z,13.10
2017-12-31T11:41:45.840Z,13.10
2017-12-31T11:44:12.482Z,13.10
2017-12-31T11:46:38.856Z,13.10
2017-12-31T11:49:05.266Z,13.10
2017-12-31T11:51:32.534Z,13.10
2017-12-31T11:53:58.941Z,13.10
2017-12-31T11:56:26.125Z,13.00
2017-12-31T11:58:52.598Z,13.00
2017-12-31T12:01:19.030Z,13.00
2017-12-31T12:03:45.462Z,12.90
2017-12-31T12:06:11.860Z,13.00
2017-12-31T12:08:38.302Z,13.00
2017-12-31T12:11:05.593Z,13.10
2017-12-31T12:13:32.773Z,13.20
2017-12-31T12:15:59.218Z,13.20
2017-12-31T12:18:25.678Z,13.20
2017-12-31T12:20:52.257Z,13.20
2017-12-31T12:23:19.422Z,13.50
2017-12-31T12:25:45.826Z,13.50
2017-12-31T12:28:12.991Z,13.80
2017-12-31T12:30:40.156Z,13.90
2017-12-31T12:33:06.594Z,13.90
2017-12-31T12:35:33.284Z,14.10
2017-12-31T12:37:59.790Z,14.50
2017-12-31T12:40:26.229Z,14.80
2017-12-31T12:42:52.730Z,14.70
2017-12-31T12:45:19.195Z,14.80
2017-12-31T12:47:45.665Z,14.60
2017-12-31T12:50:12.844Z,14.40
2017-12-31T13:02:24.374Z,14.40
2017-12-31T13:04:51.775Z,15.20
2017-12-31T13:07:18.217Z,15.20
2017-12-31T13:09:45.412Z,14.50
2017-12-31T13:12:12.617Z,14.30
2017-12-31T13:14:39.027Z,14.30
2017-12-31T13:17:05.469Z,14.20
2017-12-31T13:22:32.576Z,13.90
2017-12-31T13:24:58.984Z,13.90
2017-12-31T13:27:25.497Z,13.90
2017-12-31T13:29:51.914Z,13.90
2017-12-31T13:32:18.351Z,14.10
2017-12-31T13:34:44.779Z,14.00
2017-12-31T13:37:11.538Z,13.80
2017-12-31T13:39:37.978Z,13.70
2017-12-31T13:42:04.367Z,13.70
2017-12-31T13:44:30.941Z,13.60
2017-12-31T13:46:57.468Z,13.60
2017-12-31T13:49:23.853Z,13.80
2017-12-31T13:51:51.020Z,13.90
2017-12-31T13:54:17.457Z,13.90
2017-12-31T13:56:44.101Z,14.00
2017-12-31T13:59:10.571Z,13.90
2017-12-31T14:01:36.998Z,13.80
2017-12-31T14:04:03.453Z,14.00
2017-12-31T14:06:29.885Z,13.90
2017-12-31T14:08:56.421Z,13.90
2017-12-31T14:11:22.861Z,13.90
2017-12-31T14:13:50.036Z,13.70
2017-12-31T14:16:16.608Z,13.70
2017-12-31T14:18:43.026Z,13.70
2017-12-31T14:21:09.563Z,13.60
2017-12-31T14:23:36.037Z,13.60
2017-12-31T14:26:02.473Z,13.60
2017-12-31T14:28:29.061Z,13.70
2017-12-31T14:30:55.506Z,13.70
2017-12-31T14:33:21.934Z,13.60
2017-12-31T14:35:48.370Z,13.60
2017-12-31T14:38:14.849Z,13.50
2017-12-31T14:40:42.277Z,13.40
2017-12-31T14:43:08.706Z,13.40
2017-12-31T14:45:35.151Z,13.40
2017-12-31T14:48:01.605Z,13.40
2017-12-31T14:50:28.906Z,13.30
2017-12-31T14:52:55.398Z,13.20
2017-12-31T14:58:19.797Z,13.10
2017-12-31T15:00:47.008Z,12.90
2017-12-31T15:03:13.398Z,12.90
2017-12-31T15:05:39.837Z,12.80
2017-12-31T15:08:06.253Z,12.80
2017-12-31T15:10:32.776Z,12.60
2017-12-31T15:12:59.900Z,12.50
2017-12-31T15:15:26.295Z,12.40
2017-12-31T15:17:53.017Z,12.40
2017-12-31T15:20:19.417Z,12.30
2017-12-31T15:22:45.862Z,12.20
2017-12-31T15:25:13.018Z,12.00
2017-12-31T15:27:40.632Z,11.90
2017-12-31T15:30:07.032Z,11.90
2017-12-31T15:32:33.481Z,11.90
2017-12-31T15:34:59.930Z,11.80
2017-12-31T15:37:26.469Z,11.70
2017-12-31T15:39:52.913Z,11.60
2017-12-31T15:42:20.043Z,11.50
2017-12-31T15:44:46.473Z,11.40
2017-12-31T15:47:13.134Z,11.40
2017-12-31T15:49:39.652Z,11.30
2017-12-31T15:52:06.085Z,11.30
2017-12-31T15:54:32.542Z,11.30
2017-12-31T15:57:00.226Z,11.30
2017-12-31T15:59:26.662Z,11.30
2017-12-31T16:01:53.977Z,11.20
2017-12-31T16:04:20.382Z,11.10
2017-12-31T16:06:46.800Z,10.90
2017-12-31T16:09:13.329Z,10.80
2017-12-31T16:11:39.799Z,10.70
2017-12-31T16:14:06.371Z,10.60
2017-12-31T16:16:32.817Z,10.50
2017-12-31T16:18:59.933Z,10.30
2017-12-31T16:21:26.416Z,10.30
2017-12-31T16:23:52.797Z,10.10
2017-12-31T16:26:20.167Z,9.50
2017-12-31T16:28:47.424Z,9.00
2017-12-31T16:31:14.662Z,8.90
2017-12-31T16:33:41.849Z,8.80
2017-12-31T16:36:09.096Z,8.80
2017-12-31T16:38:35.524Z,8.70
2017-12-31T16:41:01.956Z,8.60
2017-12-31T16:43:28.534Z,8.50
2017-12-31T16:45:54.957Z,8.80
2017-12-31T16:48:22.128Z,9.10
2017-12-31T16:50:48.555Z,9.10
2017-12-31T16:53:14.972Z,9.30
2017-12-31T16:55:42.146Z,9.90
2017-12-31T16:58:08.585Z,9.90
2017-12-31T17:00:35.009Z,10.20
2017-12-31T17:03:08.323Z,10.40
2017-12-31T17:05:35.504Z,10.50
2017-12-31T17:08:01.922Z,10.50
2017-12-31T17:10:28.385Z,10.60
2017-12-31T17:12:54.796Z,10.60
2017-12-31T17:15:21.220Z,10.60
2017-12-31T17:17:47.697Z,10.60
2017-12-31T17:20:14.115Z,10.60
2017-12-31T17:22:40.533Z,10.50
2017-12-31T17:25:06.967Z,10.60
2017-12-31T17:27:33.396Z,10.60
2017-12-31T17:29:59.809Z,10.60
2017-12-31T17:32:26.232Z,10.60
2017-12-31T17:34:53.372Z,10.50
2017-12-31T17:37:20.653Z,10.40
2017-12-31T17:39:47.052Z,10.40
2017-12-31T17:42:14.197Z,10.40
2017-12-31T17:44:41.440Z,10.30
2017-12-31T17:47:07.818Z,10.30
2017-12-31T17:49:34.208Z,10.30
2017-12-31T17:52:00.824Z,10.20
2017-12-31T17:54:27.232Z,10.20
2017-12-31T17:56:53.747Z,10.10
2017-12-31T17:59:20.193Z,10.10
2017-12-31T18:01:46.592Z,9.90
2017-12-31T18:04:13.746Z,9.90
2017-12-31T18:09:36.023Z,9.90
2017-12-31T18:12:02.421Z,9.90
2017-12-31T18:14:29.614Z,9.90
2017-12-31T18:16:55.990Z,9.90
2017-12-31T18:19:22.382Z,10.00
2017-12-31T18:21:48.945Z,10.00
2017-12-31T18:24:15.360Z,10.00
2017-12-31T18:26:41.785Z,10.00
2017-12-31T18:29:08.220Z,10.00
2017-12-31T18:31:34.637Z,10.00
2017-12-31T18:34:01.045Z,9.90
2017-12-31T18:36:27.472Z,9.90
2017-12-31T18:38:53.958Z,9.90
2017-12-31T18:41:21.249Z,9.90
2017-12-31T18:43:48.664Z,9.90
2017-12-31T18:46:16.013Z,9.90
2017-12-31T18:48:42.552Z,9.90
2017-12-31T18:51:08.939Z,9.90
2017-12-31T18:53:35.340Z,9.90
2017-12-31T18:58:59.393Z,9.70
2017-12-31T19:01:25.825Z,9.70
2017-12-31T19:03:52.221Z,9.70
2017-12-31T19:06:19.400Z,9.60
2017-12-31T19:08:45.846Z,9.60
2017-12-31T19:11:12.277Z,9.70
2017-12-31T19:13:38.884Z,9.70
2017-12-31T19:16:05.322Z,9.70
2017-12-31T19:18:31.724Z,9.70
2017-12-31T19:20:58.865Z,9.70
2017-12-31T19:23:25.296Z,9.60
2017-12-31T19:25:51.709Z,9.70
2017-12-31T19:28:18.112Z,9.70
2017-12-31T19:30:44.546Z,9.70
2017-12-31T19:33:10.953Z,9.90
2017-12-31T19:35:37.396Z,9.90
2017-12-31T19:38:03.853Z,10.00
2017-12-31T19:40:30.288Z,10.00
2017-12-31T19:42:56.753Z,9.90
2017-12-31T19:45:23.145Z,9.90
2017-12-31T19:47:49.682Z,10.00
2017-12-31T19:50:16.075Z,10.00
2017-12-31T19:52:42.549Z,10.00
2017-12-31T19:55:08.934Z,10.00
2017-12-31T19:57:36.072Z,10.00
2017-12-31T20:00:03.289Z,9.90
2017-12-31T20:02:29.696Z,9.90
2017-12-31T20:04:56.144Z,9.90
2017-12-31T20:07:22.565Z,9.90
2017-12-31T20:09:48.968Z,9.90
2017-12-31T20:12:16.141Z,9.90
2017-12-31T20:14:42.562Z,9.90
2017-12-31T20:17:08.977Z,9.90
2017-12-31T20:19:36.109Z,9.90
2017-12-31T20:22:02.520Z,9.90
2017-12-31T20:24:28.895Z,9.90
2017-12-31T20:26:55.391Z,9.90
2017-12-31T20:29:21.866Z,9.90
2017-12-31T20:31:48.301Z,9.90
2017-12-31T20:34:14.710Z,9.90
2017-12-31T20:36:41.901Z,9.90
2017-12-31T20:39:09.577Z,9.90
2017-12-31T20:41:35.992Z,9.90
2017-12-31T20:44:02.426Z,9.80
2017-12-31T20:46:28.864Z,9.80
2017-12-31T20:48:55.274Z,9.80
2017-12-31T20:51:21.709Z,9.80
2017-12-31T20:53:48.125Z,9.70
2017-12-31T20:56:15.298Z,9.60
2017-12-31T20:58:41.690Z,9.60
2017-12-31T21:01:08.855Z,9.60
2017-12-31T21:03:36.026Z,9.50
2017-12-31T21:06:02.423Z,9.50
2017-12-31T21:08:29.625Z,9.50
2017-12-31T21:10:56.047Z,9.50
2017-12-31T21:13:22.476Z,9.40
2017-12-31T21:15:48.885Z,9.40
2017-12-31T21:18:16.041Z,9.30
2017-12-31T21:20:42.572Z,9.30
2017-12-31T21:23:08.984Z,9.30
2017-12-31T21:25:36.183Z,9.30
2017-12-31T21:28:02.612Z,9.20
2017-12-31T21:30:29.036Z,9.30
2017-12-31T21:32:55.463Z,9.30
2017-12-31T21:35:21.852Z,9.30
2017-12-31T21:37:49.046Z,9.10
2017-12-31T21:40:15.436Z,9.10
2017-12-31T21:42:42.576Z,9.10
2017-12-31T21:45:08.996Z,9.10
2017-12-31T21:47:36.185Z,9.10
2017-12-31T21:50:02.658Z,9.10
2017-12-31T21:52:29.176Z,9.10
2017-12-31T21:54:56.206Z,9.10
2017-12-31T21:57:22.594Z,9.00
2017-12-31T21:59:49.001Z,9.00
2017-12-31T22:02:15.468Z,9.00
2017-12-31T22:04:41.904Z,9.00
2017-12-31T22:07:08.396Z,8.90
2017-12-31T22:09:34.855Z,8.90
2017-12-31T22:12:01.260Z,8.90
2017-12-31T22:14:27.796Z,8.80
2017-12-31T22:16:54.245Z,8.90
2017-12-31T22:19:20.693Z,8.80
2017-12-31T22:21:47.126Z,8.80
2017-12-31T22:24:13.537Z,8.70
2017-12-31T22:26:39.976Z,8.70
2017-12-31T22:29:06.495Z,8.60
2017-12-31T22:31:33.078Z,8.60
2017-12-31T22:34:00.269Z,8.50
2017-12-31T22:36:26.676Z,8.50
2017-12-31T22:38:53.112Z,8.60
2017-12-31T22:41:19.521Z,8.60
2017-12-31T22:43:46.733Z,8.50
2017-12-31T22:46:13.103Z,8.50
2017-12-31T22:48:40.253Z,8.50
2017-12-31T22:51:07.452Z,8.50
2017-12-31T22:53:33.936Z,8.40
2017-12-31T22:56:01.224Z,8.30
2017-12-31T22:58:27.616Z,8.30
2017-12-31T23:00:54.480Z,8.30
2017-12-31T23:03:20.898Z,8.30
2017-12-31T23:05:48.097Z,8.40
2017-12-31T23:08:14.548Z,8.30
2017-12-31T23:10:40.977Z,8.30
2017-12-31T23:13:07.437Z,8.20
2017-12-31T23:15:34.605Z,8.20
2017-12-31T23:18:01.038Z,8.20
2017-12-31T23:20:28.225Z,8.20
2017-12-31T23:22:54.765Z,8.20
2017-12-31T23:25:21.200Z,8.20
2017-12-31T23:27:48.658Z,8.30
2017-12-31T23:30:15.104Z,8.30
2017-12-31T23:32:41.528Z,8.30
2017-12-31T23:35:07.927Z,8.20
2017-12-31T23:37:41.249Z,8.20
2017-12-31T23:40:07.668Z,8.30
2017-12-31T23:42:34.080Z,8.40
2017-12-31T23:45:00.501Z,8.50
2017-12-31T23:47:26.934Z,8.40
2017-12-31T23:49:53.342Z,8.40
2017-12-31T23:52:19.785Z,8.40
2017-12-31T23:54:46.951Z,8.20
2017-12-31T23:57:13.337Z,8.20
2017-12-31T23:59:39.736Z,8.20
